Time;durP1;ratioP1;P1;durP2;ratioP2;P2;SDS_P1;SDS_P2;PMS_P1;PMS_P2;Temp;Humidity;BMP_temperature;BMP_pressure;BME280_temperature;BME280_humidity;BME280_pressure;Samples;Min_cycle;Max_cycle;Signal;HPM_P1;HPM_P2
2021/01/13 00:02:19;;;;;;;32.13;8.80;;;1.40;99.90;;;;;;5015840;28;20205;-75
2021/01/13 00:04:46;;;;;;;16.60;7.73;;;1.50;99.90;;;;;;5019650;28;20555;-75
2021/01/13 00:07:14;;;;;;;23.53;8.13;;;1.50;99.90;;;;;;5019481;28;20209;-75
2021/01/13 00:09:40;;;;;;;27.23;8.97;;;1.60;99.90;;;;;;5014290;28;20224;-75
2021/01/13 00:12:07;;;;;;;21.37;7.63;;;1.60;99.90;;;;;;5014641;28;20204;-75
2021/01/13 00:14:34;;;;;;;19.40;8.07;;;1.70;99.90;;;;;;5017712;28;20331;-74
2021/01/13 00:17:00;;;;;;;20.43;7.83;;;1.60;99.90;;;;;;5019745;28;20214;-75
2021/01/13 00:19:26;;;;;;;19.77;7.80;;;1.70;99.90;;;;;;5011782;28;20250;-74
2021/01/13 00:21:55;;;;;;;27.20;8.33;;;1.70;99.90;;;;;;5012861;28;20720;-74
2021/01/13 00:24:22;;;;;;;19.17;7.87;;;1.80;99.90;;;;;;5015040;28;20312;-75
2021/01/13 00:26:49;;;;;;;23.60;8.10;;;1.80;99.90;;;;;;5014276;28;20227;-74
2021/01/13 00:29:16;;;;;;;36.17;9.27;;;1.70;99.90;;;;;;5012939;28;20310;-75
2021/01/13 00:31:42;;;;;;;25.83;9.43;;;1.70;99.90;;;;;;5076879;23;20204;-76
2021/01/13 00:34:09;;;;;;;28.03;9.90;;;1.70;99.90;;;;;;4998837;28;20285;-75
2021/01/13 00:36:35;;;;;;;23.00;9.33;;;1.70;99.90;;;;;;4996600;28;20209;-75
2021/01/13 00:39:04;;;;;;;26.27;9.47;;;1.80;99.90;;;;;;4981727;28;20871;-75
2021/01/13 00:41:31;;;;;;;25.60;9.07;;;1.70;99.90;;;;;;4980164;28;20296;-75
2021/01/13 00:43:57;;;;;;;25.40;9.80;;;1.80;99.90;;;;;;4984067;28;20499;-75
2021/01/13 00:46:24;;;;;;;21.57;9.43;;;1.80;99.90;;;;;;4978064;28;20206;-75
2021/01/13 00:48:50;;;;;;;27.20;9.77;;;1.80;99.90;;;;;;4984063;28;20290;-75
2021/01/13 00:51:17;;;;;;;27.93;9.97;;;1.80;99.90;;;;;;4983260;28;20272;-75
2021/01/13 00:53:43;;;;;;;26.70;10.77;;;1.80;99.90;;;;;;4986400;28;20308;-75
2021/01/13 00:56:11;;;;;;;30.90;10.67;;;1.80;99.90;;;;;;4981601;28;20707;-75
2021/01/13 00:58:37;;;;;;;30.57;10.60;;;1.80;99.90;;;;;;4979251;28;20305;-75
2021/01/13 01:01:03;;;;;;;24.17;10.07;;;1.80;99.90;;;;;;4978391;28;20735;-75
2021/01/13 01:03:30;;;;;;;33.23;11.33;;;1.90;99.90;;;;;;4980817;28;20209;-75
2021/01/13 01:05:56;;;;;;;28.37;11.70;;;1.90;99.90;;;;;;4980957;28;20395;-76
2021/01/13 01:08:23;;;;;;;31.67;10.73;;;2.10;99.90;;;;;;4979185;28;20257;-75
2021/01/13 01:10:53;;;;;;;23.00;9.23;;;2.10;99.90;;;;;;4977038;28;20293;-75
2021/01/13 01:13:20;;;;;;;27.37;9.63;;;2.10;99.90;;;;;;4978398;28;20229;-75
2021/01/13 01:15:46;;;;;;;28.60;10.80;;;2.10;99.90;;;;;;4981297;28;20300;-75
2021/01/13 01:18:13;;;;;;;26.23;9.97;;;2.00;99.90;;;;;;4979766;28;20227;-75
2021/01/13 01:20:39;;;;;;;28.07;10.90;;;2.00;99.90;;;;;;4978983;28;20660;-75
2021/01/13 01:23:06;;;;;;;31.63;11.30;;;2.00;99.90;;;;;;4978731;28;20213;-75
2021/01/13 01:25:32;;;;;;;29.70;10.20;;;2.00;99.90;;;;;;4981003;28;20654;-75
2021/01/13 01:28:00;;;;;;;31.17;10.90;;;1.90;99.90;;;;;;4979654;28;20312;-75
2021/01/13 01:30:28;;;;;;;32.57;10.93;;;2.10;99.90;;;;;;4978655;28;20738;-75
2021/01/13 01:32:56;;;;;;;37.80;10.60;;;2.00;99.90;;;;;;4976996;28;20659;-75
2021/01/13 01:35:22;;;;;;;26.30;10.30;;;1.90;99.90;;;;;;4984724;28;20296;-75
2021/01/13 01:37:49;;;;;;;24.23;9.83;;;1.80;99.90;;;;;;4980248;28;20236;-75
2021/01/13 01:40:17;;;;;;;33.63;11.87;;;1.70;99.90;;;;;;4979520;28;20229;-75
2021/01/13 01:42:48;;;;;;;27.70;10.60;;;1.70;99.90;;;;;;4979201;28;20213;-75
2021/01/13 01:45:18;;;;;;;35.20;11.80;;;1.60;99.90;;;;;;4975624;28;20300;-75
2021/01/13 01:48:13;;;;;;;32.33;11.93;;;1.70;99.90;;;;;;4976480;28;20209;-75
2021/01/13 01:50:41;;;;;;;28.57;12.03;;;1.70;99.90;;;;;;4976865;28;20225;-75
2021/01/13 01:53:20;;;;;;;30.03;10.03;;;1.70;99.90;;;;;;4976444;28;20292;-75
2021/01/13 01:55:50;;;;;;;28.80;11.60;;;1.80;99.90;;;;;;4977021;28;20209;-75
2021/01/13 01:58:25;;;;;;;34.17;12.73;;;1.90;99.90;;;;;;4977661;28;20229;-75
2021/01/13 02:00:55;;;;;;;32.90;11.73;;;1.80;99.90;;;;;;4977516;28;20610;-75
2021/01/13 02:03:24;;;;;;;31.83;12.33;;;1.80;99.90;;;;;;4976392;28;20635;-75
2021/01/13 02:05:57;;;;;;;28.17;11.60;;;1.90;99.90;;;;;;4975223;28;20205;-75
2021/01/13 02:08:24;;;;;;;32.70;11.50;;;1.90;99.90;;;;;;4978139;28;20237;-75
2021/01/13 02:10:52;;;;;;;28.33;11.77;;;2.00;99.90;;;;;;4975662;28;20204;-75
2021/01/13 02:13:20;;;;;;;30.50;12.13;;;2.10;99.90;;;;;;4976083;28;20582;-75
2021/01/13 02:15:48;;;;;;;24.33;11.27;;;2.00;99.90;;;;;;4977803;28;20205;-75
2021/01/13 02:18:18;;;;;;;26.03;11.20;;;2.00;99.90;;;;;;4975249;28;20295;-75
2021/01/13 02:20:52;;;;;;;33.37;11.77;;;2.00;99.90;;;;;;4974574;28;20229;-75
2021/01/13 02:23:30;;;;;;;25.57;10.97;;;2.00;99.90;;;;;;4973841;28;20605;-75
2021/01/13 02:26:59;;;;;;;14.97;6.67;;;2.00;99.90;;;;;;4977367;28;20303;-75
2021/01/13 02:29:34;;;;;;;25.20;9.30;;;2.10;99.90;;;;;;4975055;28;20307;-75
2021/01/13 02:32:17;;;;;;;30.07;9.73;;;2.10;99.90;;;;;;4975232;28;20227;-75
2021/01/13 02:35:00;;;;;;;23.47;9.20;;;2.00;99.90;;;;;;4976273;28;20209;-75
2021/01/13 02:37:50;;;;;;;22.83;9.90;;;2.00;99.90;;;;;;4977062;28;20243;-75
2021/01/13 02:40:20;;;;;;;26.83;9.83;;;1.90;99.90;;;;;;4980505;28;20310;-75
2021/01/13 02:43:08;;;;;;;25.70;10.00;;;2.00;99.90;;;;;;4980759;28;20205;-75
2021/01/13 02:45:38;;;;;;;24.57;10.50;;;1.90;99.90;;;;;;4981713;28;20873;-75
2021/01/13 02:48:10;;;;;;;35.53;11.23;;;1.90;99.90;;;;;;4985932;28;20264;-75
2021/01/13 02:50:39;;;;;;;27.63;10.97;;;1.90;99.90;;;;;;4977397;28;20233;-75
2021/01/13 02:53:35;;;;;;;21.83;10.50;;;2.00;99.90;;;;;;4977686;28;20309;-75
2021/01/13 02:56:12;;;;;;;26.30;10.00;;;2.00;99.90;;;;;;4955708;28;20304;-75
2021/01/13 02:58:40;;;;;;;41.03;11.47;;;2.00;99.90;;;;;;4978404;28;20308;-75
2021/01/13 03:01:09;;;;;;;27.33;10.80;;;2.00;99.90;;;;;;4978721;28;20236;-75
2021/01/13 03:03:37;;;;;;;26.13;11.13;;;2.00;99.90;;;;;;4977760;28;20339;-75
2021/01/13 03:06:06;;;;;;;29.43;10.90;;;1.90;99.90;;;;;;4978601;28;20288;-76
2021/01/13 03:08:45;;;;;;;24.20;11.10;;;1.90;99.90;;;;;;4978785;28;20301;-75
2021/01/13 03:11:20;;;;;;;21.70;9.83;;;1.80;99.90;;;;;;4981243;28;20251;-75
2021/01/13 03:13:47;;;;;;;23.67;9.70;;;1.80;99.90;;;;;;4974251;28;20241;-75
2021/01/13 03:16:17;;;;;;;25.20;9.20;;;1.80;99.90;;;;;;4979284;28;20258;-75
2021/01/13 03:18:54;;;;;;;17.77;9.50;;;1.80;99.90;;;;;;4979445;28;20690;-74
2021/01/13 03:21:26;;;;;;;22.03;9.10;;;1.80;99.90;;;;;;4981637;28;20225;-75
2021/01/13 03:24:00;;;;;;;16.00;7.90;;;1.80;99.90;;;;;;4985161;28;20363;-75
2021/01/13 03:26:31;;;;;;;22.70;9.07;;;1.80;99.90;;;;;;4986086;28;20232;-75
2021/01/13 03:28:58;;;;;;;27.40;9.20;;;1.90;99.90;;;;;;4978250;28;20308;-75
2021/01/13 03:31:29;;;;;;;24.27;9.77;;;2.00;99.90;;;;;;4977548;28;20264;-75
2021/01/13 03:34:22;;;;;;;20.13;9.57;;;1.90;99.90;;;;;;4979258;28;20301;-75
2021/01/13 03:36:57;;;;;;;23.73;9.50;;;2.00;99.90;;;;;;4979609;28;20578;-75
2021/01/13 03:39:26;;;;;;;27.60;9.67;;;2.00;99.90;;;;;;4979249;28;20341;-75
2021/01/13 03:42:11;;;;;;;30.43;10.50;;;2.00;99.90;;;;;;4979135;28;20210;-75
2021/01/13 03:44:40;;;;;;;25.00;10.03;;;1.90;99.90;;;;;;4979010;28;20288;-75
2021/01/13 03:47:33;;;;;;;24.50;10.50;;;1.90;99.90;;;;;;4978152;28;20311;-74
2021/01/13 03:50:12;;;;;;;25.60;9.70;;;1.90;99.90;;;;;;4976374;28;20754;-74
2021/01/13 03:52:45;;;;;;;22.87;10.03;;;1.90;99.90;;;;;;4976415;28;20296;-74
2021/01/13 03:55:12;;;;;;;28.87;10.53;;;1.90;99.90;;;;;;4979158;28;20316;-74
2021/01/13 03:58:07;;;;;;;22.20;9.60;;;1.90;99.90;;;;;;4979171;28;20313;-74
2021/01/13 04:00:46;;;;;;;21.63;8.30;;;1.90;99.90;;;;;;4975426;28;20327;-74
2021/01/13 04:03:25;;;;;;;24.40;11.07;;;1.90;99.90;;;;;;4977535;28;20209;-74
2021/01/13 04:06:04;;;;;;;27.80;9.67;;;2.00;99.90;;;;;;4976855;28;20340;-74
2021/01/13 04:08:35;;;;;;;22.93;9.07;;;1.90;99.90;;;;;;4977734;28;20316;-74
2021/01/13 04:11:05;;;;;;;20.83;10.03;;;1.80;99.90;;;;;;4975224;28;20778;-74
2021/01/13 04:13:40;;;;;;;27.63;9.73;;;1.90;99.90;;;;;;4981042;28;20205;-74
2021/01/13 04:16:08;;;;;;;23.80;9.10;;;1.90;99.90;;;;;;4975566;28;20212;-74
2021/01/13 04:18:36;;;;;;;20.27;9.70;;;1.90;99.90;;;;;;4978947;28;20229;-74
2021/01/13 04:21:04;;;;;;;22.93;9.50;;;1.90;99.90;;;;;;4976409;28;20248;-74
2021/01/13 04:23:31;;;;;;;29.30;9.57;;;1.90;99.90;;;;;;4976841;28;20210;-75
2021/01/13 04:25:58;;;;;;;21.27;8.87;;;1.90;99.90;;;;;;4979393;28;20308;-74
2021/01/13 04:28:26;;;;;;;29.50;10.20;;;1.90;99.90;;;;;;4977315;28;20217;-74
2021/01/13 04:30:53;;;;;;;23.37;10.10;;;1.90;99.90;;;;;;4979192;28;20283;-74
2021/01/13 04:33:20;;;;;;;25.07;9.80;;;1.90;99.90;;;;;;4977953;28;20213;-74
2021/01/13 04:35:48;;;;;;;22.40;9.13;;;1.90;99.90;;;;;;4977337;28;20241;-74
2021/01/13 04:38:20;;;;;;;20.20;8.73;;;1.90;99.90;;;;;;4977366;28;20268;-74
2021/01/13 04:40:50;;;;;;;24.83;10.17;;;2.00;99.90;;;;;;4977172;28;20233;-74
2021/01/13 04:43:23;;;;;;;26.87;9.80;;;1.90;99.90;;;;;;4978238;28;20220;-74
2021/01/13 04:45:50;;;;;;;19.53;10.30;;;1.90;99.90;;;;;;4979424;28;20209;-74
2021/01/13 04:48:18;;;;;;;25.33;8.93;;;1.90;99.90;;;;;;4976677;28;20312;-74
2021/01/13 04:50:46;;;;;;;26.47;9.13;;;2.00;99.90;;;;;;4978313;28;20205;-75
2021/01/13 04:53:15;;;;;;;26.40;10.27;;;2.00;99.90;;;;;;4975390;28;20731;-75
2021/01/13 04:55:46;;;;;;;24.40;9.87;;;2.00;99.90;;;;;;4979024;28;20288;-74
2021/01/13 04:59:00;;;;;;;25.03;9.03;;;2.00;99.90;;;;;;4982546;28;20311;-74
2021/01/13 05:02:07;;;;;;;24.30;8.80;;;2.10;99.90;;;;;;4978106;28;20649;-74
2021/01/13 05:04:59;;;;;;;21.90;8.30;;;2.10;99.90;;;;;;4977669;28;20300;-74
2021/01/13 05:07:32;;;;;;;20.27;8.53;;;2.00;99.90;;;;;;4979997;28;20561;-74
2021/01/13 05:10:04;;;;;;;26.10;9.43;;;2.10;99.90;;;;;;4979521;28;20340;-74
2021/01/13 05:12:45;;;;;;;25.87;9.23;;;2.00;99.90;;;;;;4979031;28;20283;-74
2021/01/13 05:15:15;;;;;;;33.53;9.17;;;2.00;99.90;;;;;;4981402;28;20296;-74
2021/01/13 05:18:06;;;;;;;23.50;9.20;;;2.10;99.90;;;;;;4977119;28;20209;-74
2021/01/13 05:20:36;;;;;;;21.43;9.67;;;2.00;99.90;;;;;;4978252;28;20240;-74
2021/01/13 05:23:04;;;;;;;21.47;7.93;;;2.00;99.90;;;;;;4977713;28;20238;-74
2021/01/13 05:25:48;;;;;;;29.37;9.10;;;1.90;99.90;;;;;;4979809;28;20321;-74
2021/01/13 05:28:21;;;;;;;29.73;8.60;;;1.90;99.90;;;;;;4976659;28;20237;-74
2021/01/13 05:30:50;;;;;;;22.37;7.93;;;1.80;99.90;;;;;;4977009;28;20333;-76
2021/01/13 05:33:18;;;;;;;26.10;8.90;;;1.90;99.90;;;;;;4977654;28;20309;-74
2021/01/13 05:35:47;;;;;;;23.00;8.67;;;1.80;99.90;;;;;;4978936;28;20283;-75
2021/01/13 05:38:36;;;;;;;26.13;8.03;;;1.90;99.90;;;;;;4977534;28;20312;-75
2021/01/13 05:41:09;;;;;;;21.37;8.07;;;1.90;99.90;;;;;;4975182;28;20232;-74
2021/01/13 05:43:42;;;;;;;20.17;8.23;;;1.90;99.90;;;;;;4976766;28;20212;-74
2021/01/13 05:46:11;;;;;;;18.97;7.00;;;1.90;99.90;;;;;;4977401;28;20295;-74
2021/01/13 05:48:41;;;;;;;27.07;8.53;;;2.10;99.90;;;;;;4973592;28;20228;-74
2021/01/13 05:51:09;;;;;;;20.27;8.23;;;2.00;99.90;;;;;;4976393;28;20233;-74
2021/01/13 05:53:36;;;;;;;25.70;9.17;;;2.10;99.90;;;;;;4976430;28;20284;-74
2021/01/13 05:56:03;;;;;;;27.63;9.33;;;2.10;99.90;;;;;;4982861;28;20228;-74
2021/01/13 05:58:31;;;;;;;27.57;9.47;;;2.00;99.90;;;;;;4984819;28;20320;-75
2021/01/13 06:00:59;;;;;;;29.70;9.53;;;2.00;99.90;;;;;;4990836;28;20268;-74
2021/01/13 06:03:28;;;;;;;26.50;9.53;;;2.00;99.90;;;;;;4977393;28;20710;-74
2021/01/13 06:05:58;;;;;;;21.70;8.97;;;1.80;99.90;;;;;;4980531;28;20291;-74
2021/01/13 06:08:26;;;;;;;24.67;8.90;;;1.80;99.90;;;;;;4975050;28;20361;-74
2021/01/13 06:10:57;;;;;;;24.77;8.33;;;1.80;99.90;;;;;;4974852;28;20293;-75
2021/01/13 06:13:29;;;;;;;25.67;8.87;;;1.80;99.90;;;;;;4975665;28;20297;-74
2021/01/13 06:15:59;;;;;;;30.93;9.43;;;1.80;99.90;;;;;;4979151;28;20289;-74
2021/01/13 06:18:27;;;;;;;26.30;8.47;;;2.00;99.90;;;;;;4975868;28;20652;-74
2021/01/13 06:20:56;;;;;;;25.50;8.53;;;1.90;99.90;;;;;;4975679;28;20225;-75
2021/01/13 06:23:23;;;;;;;21.97;7.60;;;1.90;99.90;;;;;;4976508;28;20287;-74
2021/01/13 06:25:54;;;;;;;25.93;8.23;;;1.90;99.90;;;;;;4980573;28;20201;-75
2021/01/13 06:29:06;;;;;;;22.93;7.90;;;1.90;99.90;;;;;;4978256;28;20221;-74
2021/01/13 06:31:43;;;;;;;21.10;8.13;;;1.90;99.90;;;;;;4977236;28;20201;-74
2021/01/13 06:34:27;;;;;;;22.83;8.40;;;1.80;99.90;;;;;;4974752;28;20208;-74
2021/01/13 06:37:20;;;;;;;27.60;8.10;;;1.90;99.90;;;;;;4977066;28;20632;-74
2021/01/13 06:39:46;;;;;;;23.27;7.70;;;1.90;99.90;;;;;;4970835;28;20581;-74
2021/01/13 06:42:13;;;;;;;21.10;7.90;;;1.80;99.90;;;;;;4978839;28;20633;-74
2021/01/13 06:44:44;;;;;;;22.30;8.30;;;1.80;99.90;;;;;;4978456;28;20289;-75
2021/01/13 06:47:11;;;;;;;22.67;7.90;;;1.80;99.90;;;;;;4977005;28;20691;-74
2021/01/13 06:49:38;;;;;;;22.40;7.03;;;1.80;99.90;;;;;;4971520;28;20307;-74
2021/01/13 06:52:07;;;;;;;17.03;7.03;;;1.80;99.90;;;;;;4977478;28;20213;-74
2021/01/13 06:54:43;;;;;;;27.10;10.67;;;1.80;99.90;;;;;;4976313;28;20288;-76
2021/01/13 06:57:13;;;;;;;20.83;7.80;;;1.80;99.90;;;;;;4977418;28;20348;-77
2021/01/13 06:59:41;;;;;;;17.60;6.80;;;1.80;99.90;;;;;;4979963;28;20229;-74
2021/01/13 07:02:10;;;;;;;23.80;7.43;;;1.80;99.90;;;;;;4979781;28;20213;-76
2021/01/13 07:04:46;;;;;;;16.00;7.03;;;1.90;99.90;;;;;;4980812;28;20206;-74
2021/01/13 07:07:13;;;;;;;14.90;7.10;;;1.90;99.90;;;;;;4981602;28;20203;-76
2021/01/13 07:09:41;;;;;;;14.67;6.77;;;1.90;99.90;;;;;;4976508;28;20224;-77
2021/01/13 07:12:11;;;;;;;14.10;6.00;;;1.90;99.90;;;;;;4982732;28;20580;-75
2021/01/13 07:14:39;;;;;;;11.80;5.40;;;2.00;99.90;;;;;;4979091;28;20212;-75
2021/01/13 07:17:07;;;;;;;13.60;5.80;;;1.90;99.90;;;;;;4980732;28;21063;-75
2021/01/13 07:19:35;;;;;;;13.20;6.10;;;1.90;99.90;;;;;;4979309;28;20229;-75
2021/01/13 07:22:03;;;;;;;13.87;6.40;;;1.80;99.90;;;;;;4979669;28;20219;-74
2021/01/13 07:24:31;;;;;;;12.60;5.50;;;1.80;99.90;;;;;;4979974;28;20645;-75
2021/01/13 07:26:58;;;;;;;13.07;5.30;;;1.70;99.90;;;;;;4979610;28;20213;-75
2021/01/13 07:29:26;;;;;;;14.43;5.63;;;1.70;99.90;;;;;;4980662;28;20232;-76
2021/01/13 07:31:55;;;;;;;18.60;5.40;;;1.70;99.90;;;;;;4981550;28;20283;-76
2021/01/13 07:34:29;;;;;;;10.07;5.10;;;1.70;99.90;;;;;;4978632;28;20287;-76
2021/01/13 07:37:00;;;;;;;11.33;5.43;;;1.70;99.90;;;;;;4983871;28;20244;-76
2021/01/13 07:39:52;;;;;;;8.83;4.83;;;1.90;99.90;;;;;;4975616;28;20229;-75
2021/01/13 07:42:34;;;;;;;11.53;5.57;;;2.00;99.90;;;;;;4981934;28;20297;-75
2021/01/13 07:45:06;;;;;;;15.67;6.70;;;2.00;99.90;;;;;;4985493;28;20212;-76
2021/01/13 07:48:13;;;;;;;19.40;7.10;;;2.00;99.90;;;;;;4981375;28;20573;-75
2021/01/13 07:50:41;;;;;;;13.27;6.03;;;2.00;99.90;;;;;;4978991;28;21809;-75
2021/01/13 07:53:11;;;;;;;21.70;7.47;;;2.10;99.90;;;;;;4978428;28;20213;-76
2021/01/13 07:55:43;;;;;;;21.37;7.60;;;2.10;99.90;;;;;;4982957;28;20209;-76
2021/01/13 07:58:20;;;;;;;16.80;6.37;;;2.10;99.90;;;;;;4981906;28;20235;-76
2021/01/13 08:00:58;;;;;;;18.87;7.03;;;2.10;99.90;;;;;;4977768;28;20216;-77
2021/01/13 08:04:21;;;;;;;21.57;6.93;;;2.00;99.90;;;;;;4978735;28;20228;-76
2021/01/13 08:06:48;;;;;;;13.23;6.77;;;2.10;99.90;;;;;;4978091;28;20292;-76
2021/01/13 08:09:19;;;;;;;21.20;7.20;;;2.20;99.90;;;;;;4974418;28;20239;-76
2021/01/13 08:12:22;;;;;;;17.27;6.00;;;2.20;99.90;;;;;;4979972;28;20197;-76
2021/01/13 08:15:44;;;;;;;21.07;6.97;;;2.30;99.90;;;;;;4966708;28;20288;-76
2021/01/13 08:18:50;;;;;;;15.70;6.80;;;2.60;99.90;;;;;;4989558;28;20317;-75
2021/01/13 08:23:54;;;;;;;18.23;7.50;;;2.60;99.90;;;;;;5014097;28;20581;-75
2021/01/13 08:26:21;;;;;;;29.17;7.90;;;2.60;99.90;;;;;;5013837;28;20199;-73
2021/01/13 08:28:50;;;;;;;16.70;6.83;;;2.60;99.90;;;;;;5013451;28;20200;-74
2021/01/13 08:31:22;;;;;;;27.17;8.27;;;2.60;99.90;;;;;;5015688;28;20259;-73
2021/01/13 08:33:51;;;;;;;22.17;7.87;;;2.60;99.90;;;;;;4999274;28;20569;-74
2021/01/13 08:36:18;;;;;;;26.13;7.83;;;2.50;99.90;;;;;;5000207;28;20267;-75
2021/01/13 08:39:06;;;;;;;25.97;8.23;;;2.60;99.90;;;;;;4997521;28;20732;-74
2021/01/13 08:41:33;;;;;;;23.97;7.83;;;2.50;99.90;;;;;;4994311;28;20457;-75
2021/01/13 08:44:04;;;;;;;18.87;7.80;;;2.60;99.90;;;;;;4996587;28;20296;-76
2021/01/13 08:46:46;;;;;;;21.17;7.77;;;2.70;99.90;;;;;;4995199;28;20196;-77
2021/01/13 08:49:21;;;;;;;22.40;7.33;;;2.70;99.90;;;;;;4999408;28;20224;-77
2021/01/13 08:52:13;;;;;;;21.53;7.43;;;2.60;99.90;;;;;;4998211;28;20606;-75
2021/01/13 08:54:41;;;;;;;24.47;7.93;;;2.70;99.90;;;;;;4991904;28;20303;-74
2021/01/13 08:57:09;;;;;;;23.87;7.73;;;2.80;99.90;;;;;;4999157;28;20207;-73
2021/01/13 08:59:37;;;;;;;28.40;8.03;;;2.80;99.90;;;;;;5001137;28;20279;-76
2021/01/13 09:02:07;;;;;;;16.77;7.33;;;2.80;99.90;;;;;;5000937;28;20318;-74
2021/01/13 09:04:53;;;;;;;13.63;6.27;;;2.80;99.90;;;;;;4997700;28;20298;-75
2021/01/13 09:07:22;;;;;;;19.33;6.73;;;2.80;99.90;;;;;;5009334;28;20211;-74
2021/01/13 09:09:57;;;;;;;23.33;6.87;;;2.80;99.90;;;;;;4990517;28;20207;-76
2021/01/13 09:12:38;;;;;;;18.77;6.53;;;2.80;99.90;;;;;;4996134;28;20310;-74
2021/01/13 09:15:15;;;;;;;16.20;5.77;;;2.90;99.90;;;;;;4997178;28;20293;-77
2021/01/13 09:17:44;;;;;;;19.90;6.93;;;3.00;99.90;;;;;;5003056;28;20212;-76
2021/01/13 09:20:27;;;;;;;20.63;6.20;;;3.00;99.90;;;;;;4996285;28;20231;-76
2021/01/13 09:22:56;;;;;;;17.67;6.03;;;3.10;99.90;;;;;;4996342;28;21171;-73
2021/01/13 09:25:24;;;;;;;19.23;6.23;;;3.10;99.90;;;;;;5000302;28;20288;-74
2021/01/13 09:27:53;;;;;;;17.47;6.80;;;3.10;99.90;;;;;;4996175;28;20688;-78
2021/01/13 09:30:38;;;;;;;19.07;7.37;;;3.40;99.90;;;;;;4992914;28;20291;-75
2021/01/13 09:33:08;;;;;;;17.07;6.50;;;3.40;99.90;;;;;;4991708;28;20274;-75
2021/01/13 09:35:37;;;;;;;19.50;6.47;;;3.40;99.90;;;;;;4998791;28;20231;-75
2021/01/13 09:38:06;;;;;;;22.37;6.90;;;3.40;99.90;;;;;;4998144;28;20206;-72
2021/01/13 09:40:57;;;;;;;20.80;6.70;;;3.70;99.90;;;;;;4986888;28;20591;-75
2021/01/13 09:43:26;;;;;;;17.80;6.83;;;3.90;99.90;;;;;;4992509;28;20201;-75
2021/01/13 09:45:54;;;;;;;13.67;6.30;;;3.70;99.90;;;;;;4994094;28;20987;-78
2021/01/13 09:48:22;;;;;;;17.33;6.10;;;3.70;99.90;;;;;;5001131;28;20304;-77
2021/01/13 09:50:59;;;;;;;14.87;5.63;;;3.60;99.90;;;;;;4993226;28;20208;-75
2021/01/13 09:53:31;;;;;;;13.10;5.43;;;3.40;99.90;;;;;;4992277;28;20205;-74
2021/01/13 09:56:09;;;;;;;15.63;5.77;;;3.50;99.90;;;;;;4995555;28;20216;-75
2021/01/13 09:58:38;;;;;;;14.33;5.40;;;3.50;99.90;;;;;;4995503;28;20204;-75
2021/01/13 10:01:09;;;;;;;22.67;6.70;;;3.50;99.90;;;;;;4998858;28;20259;-75
2021/01/13 10:03:36;;;;;;;14.23;5.73;;;3.50;99.90;;;;;;5006023;28;20201;-75
2021/01/13 10:06:11;;;;;;;14.90;5.63;;;3.50;99.90;;;;;;5004387;28;20579;-76
2021/01/13 10:08:38;;;;;;;16.27;5.37;;;3.60;99.90;;;;;;5005927;28;20200;-75
2021/01/13 10:11:05;;;;;;;25.90;8.50;;;3.70;99.90;;;;;;4991538;28;20220;-75
2021/01/13 10:13:32;;;;;;;17.30;5.07;;;3.70;99.90;;;;;;4995487;28;20228;-75
2021/01/13 10:16:01;;;;;;;19.90;5.80;;;3.70;99.90;;;;;;4993922;28;20252;-76
2021/01/13 10:18:27;;;;;;;13.90;5.87;;;3.70;99.90;;;;;;4995030;28;20236;-76
2021/01/13 10:20:56;;;;;;;14.37;6.30;;;3.60;99.90;;;;;;4991906;28;20224;-75
2021/01/13 10:23:26;;;;;;;15.97;5.17;;;3.60;99.90;;;;;;4993683;28;20212;-75
2021/01/13 10:26:03;;;;;;;16.27;5.30;;;3.50;99.90;;;;;;4995448;28;20223;-75
2021/01/13 10:28:30;;;;;;;15.87;5.23;;;3.30;99.90;;;;;;4990635;28;20231;-74
2021/01/13 10:30:57;;;;;;;10.30;4.80;;;3.30;99.90;;;;;;4983172;28;22139;-75
2021/01/13 10:33:49;;;;;;;13.20;4.27;;;3.30;99.90;;;;;;4993801;28;20643;-75
2021/01/13 10:36:38;;;;;;;15.30;6.63;;;3.20;99.90;;;;;;4996005;28;20204;-75
2021/01/13 10:39:21;;;;;;;15.80;6.20;;;3.30;99.90;;;;;;4989301;28;20790;-75
2021/01/13 10:41:49;;;;;;;16.23;5.77;;;3.40;99.90;;;;;;4989174;28;21065;-75
2021/01/13 10:44:18;;;;;;;18.33;4.87;;;3.50;99.90;;;;;;4994203;28;20211;-75
2021/01/13 10:46:47;;;;;;;21.07;5.97;;;3.40;99.90;;;;;;5000403;28;20205;-75
2021/01/13 10:49:26;;;;;;;15.13;4.97;;;3.40;99.90;;;;;;4996993;28;20321;-75
2021/01/13 10:51:55;;;;;;;10.47;5.23;;;3.40;99.90;;;;;;4995506;28;20220;-75
2021/01/13 10:54:23;;;;;;;15.43;4.80;;;3.40;99.90;;;;;;4998559;28;20792;-75
2021/01/13 10:56:53;;;;;;;12.57;5.23;;;3.40;99.90;;;;;;4999674;28;20299;-75
2021/01/13 10:59:20;;;;;;;10.70;4.37;;;3.50;99.90;;;;;;5001982;28;20579;-75
2021/01/13 11:01:49;;;;;;;11.20;4.03;;;3.70;99.90;;;;;;5001404;28;20362;-75
2021/01/13 11:04:30;;;;;;;21.43;4.60;;;3.60;99.90;;;;;;4994857;28;20295;-75
2021/01/13 11:07:01;;;;;;;9.10;4.37;;;3.90;99.90;;;;;;4991963;28;20291;-76
2021/01/13 11:09:29;;;;;;;22.33;4.90;;;3.90;99.90;;;;;;4995766;28;20451;-76
2021/01/13 11:11:57;;;;;;;17.23;6.87;;;4.10;99.90;;;;;;4993713;28;20636;-76
2021/01/13 11:14:43;;;;;;;12.77;4.53;;;4.30;99.90;;;;;;4996599;28;20291;-76
2021/01/13 11:17:14;;;;;;;11.73;4.03;;;4.30;99.90;;;;;;4995927;28;20310;-76
2021/01/13 11:19:44;;;;;;;12.17;4.03;;;4.40;99.90;;;;;;4989964;28;20773;-76
2021/01/13 11:22:11;;;;;;;12.37;3.97;;;4.40;99.90;;;;;;4994618;28;20781;-75
2021/01/13 11:24:41;;;;;;;10.00;3.40;;;4.40;99.90;;;;;;4992798;28;20327;-75
2021/01/13 11:27:10;;;;;;;7.70;3.10;;;4.20;99.90;;;;;;4997342;28;20670;-75
2021/01/13 11:29:38;;;;;;;10.20;3.43;;;4.00;99.90;;;;;;4992924;28;20217;-75
2021/01/13 11:32:09;;;;;;;8.33;3.67;;;3.50;99.90;;;;;;4999432;28;20803;-75
2021/01/13 11:34:35;;;;;;;11.33;4.30;;;3.20;99.90;;;;;;4995205;28;20200;-75
2021/01/13 11:37:46;;;;;;;10.03;4.23;;;3.00;99.90;;;;;;4990703;28;20983;-75
2021/01/13 11:40:35;;;;;;;12.10;4.63;;;2.90;99.90;;;;;;4995667;28;20311;-76
2021/01/13 11:43:41;;;;;;;9.37;4.37;;;2.80;99.90;;;;;;4997135;28;20263;-76
2021/01/13 11:46:14;;;;;;;13.10;4.67;;;2.70;99.90;;;;;;4994763;28;20582;-76
2021/01/13 11:49:25;;;;;;;10.87;5.13;;;2.60;99.90;;;;;;4996649;28;20239;-76
2021/01/13 11:51:53;;;;;;;13.00;5.57;;;2.60;99.90;;;;;;4914267;29;20235;-75
2021/01/13 11:54:25;;;;;;;12.60;5.60;;;2.60;99.90;;;;;;4986853;28;20201;-76
2021/01/13 11:56:51;;;;;;;9.00;4.03;;;2.60;99.90;;;;;;4996851;28;20292;-73
2021/01/13 11:59:25;;;;;;;14.83;3.67;;;2.40;99.90;;;;;;4996755;28;20295;-74
2021/01/13 12:01:52;;;;;;;9.47;4.47;;;2.40;99.90;;;;;;4996998;28;20252;-74
2021/01/13 12:04:19;;;;;;;8.43;3.37;;;2.30;99.90;;;;;;4995463;28;20228;-74
2021/01/13 12:06:55;;;;;;;5.70;3.13;;;2.20;99.90;;;;;;4997592;28;20291;-75
2021/01/13 12:09:22;;;;;;;6.43;3.27;;;2.10;99.90;;;;;;4996548;28;20231;-75
2021/01/13 12:11:49;;;;;;;7.40;3.40;;;2.00;99.90;;;;;;4999231;28;20259;-75
2021/01/13 12:14:16;;;;;;;5.90;2.60;;;1.90;99.90;;;;;;5000480;28;20240;-75
2021/01/13 12:16:42;;;;;;;6.67;3.63;;;2.00;99.90;;;;;;5000625;28;20296;-73
2021/01/13 12:19:11;;;;;;;13.47;6.87;;;2.10;99.90;;;;;;4991587;28;20832;-74
2021/01/13 12:21:43;;;;;;;6.93;3.37;;;2.10;99.90;;;;;;4994496;28;20632;-73
2021/01/13 12:24:16;;;;;;;5.20;3.43;;;2.20;99.90;;;;;;4996841;28;20244;-74
2021/01/13 12:26:42;;;;;;;8.07;3.87;;;2.30;99.90;;;;;;5000321;28;20291;-74
2021/01/13 12:29:21;;;;;;;10.43;4.10;;;2.30;99.90;;;;;;4998434;28;20287;-74
2021/01/13 12:31:50;;;;;;;7.83;4.70;;;2.40;99.90;;;;;;4997419;28;20228;-74
2021/01/13 12:34:18;;;;;;;8.37;3.97;;;2.60;99.90;;;;;;5001448;28;20204;-74
2021/01/13 12:36:47;;;;;;;13.00;4.33;;;2.60;99.90;;;;;;4997124;28;20773;-74
2021/01/13 12:39:24;;;;;;;11.30;4.83;;;2.70;99.90;;;;;;4992981;28;20204;-75
2021/01/13 12:41:52;;;;;;;15.67;3.63;;;2.70;99.90;;;;;;5002550;28;20318;-75
2021/01/13 12:44:21;;;;;;;12.53;4.60;;;2.70;99.90;;;;;;5001774;28;20720;-75
2021/01/13 12:46:50;;;;;;;15.57;4.87;;;2.70;99.90;;;;;;5006598;28;20647;-74
2021/01/13 12:49:16;;;;;;;8.83;4.60;;;2.70;99.90;;;;;;4997590;28;20406;-76
2021/01/13 12:51:43;;;;;;;10.87;5.17;;;2.80;99.90;;;;;;4994323;28;20311;-74
2021/01/13 12:54:10;;;;;;;15.77;5.13;;;2.90;99.90;;;;;;4996608;28;20240;-74
2021/01/13 12:56:36;;;;;;;15.57;3.90;;;3.10;99.90;;;;;;4992639;28;20678;-74
2021/01/13 12:59:03;;;;;;;15.00;4.50;;;3.20;99.90;;;;;;4995177;28;22849;-74
2021/01/13 13:01:39;;;;;;;18.67;5.17;;;3.30;99.90;;;;;;4993238;28;20320;-74
2021/01/13 13:04:05;;;;;;;13.50;3.80;;;3.50;99.90;;;;;;4995260;28;20211;-76
2021/01/13 13:06:33;;;;;;;13.10;3.80;;;3.60;99.90;;;;;;4994047;28;20746;-74
2021/01/13 13:09:01;;;;;;;11.87;3.70;;;3.90;99.90;;;;;;4989249;28;20295;-76
2021/01/13 13:11:28;;;;;;;9.70;3.77;;;4.10;99.90;;;;;;4995693;28;20224;-76
2021/01/13 13:13:55;;;;;;;9.00;3.53;;;4.30;99.90;;;;;;4993825;28;20278;-76
2021/01/13 13:16:22;;;;;;;6.97;3.20;;;4.50;99.90;;;;;;4996674;28;20291;-76
2021/01/13 13:18:52;;;;;;;9.13;3.00;;;4.60;99.90;;;;;;4995982;28;20284;-75